createdAt,value
2023-03-01T00:00:47.552Z,-3.80
2023-03-01T00:03:51.503Z,-4.40
2023-03-01T00:06:55.020Z,-4.30
2023-03-01T00:10:01.846Z,-4.20
2023-03-01T00:13:06.263Z,-4.20
2023-03-01T00:16:12.561Z,-2.90
2023-03-01T00:19:19.586Z,-3.30
2023-03-01T00:22:22.991Z,-3.90
2023-03-01T00:25:27.719Z,-4.10
2023-03-01T00:28:30.901Z,-4.20
2023-03-01T00:31:35.332Z,-3.50
2023-03-01T00:34:38.534Z,-4.20
2023-03-01T00:37:42.373Z,-3.40
2023-03-01T00:40:47.004Z,-2.60
2023-03-01T00:43:50.341Z,-3.80
2023-03-01T00:46:53.521Z,-3.80
2023-03-01T00:49:56.706Z,-3.20
2023-03-01T00:52:59.889Z,-3.70
2023-03-01T00:56:05.981Z,-3.60
2023-03-01T00:59:09.185Z,-3.50
2023-03-01T01:02:12.404Z,-3.70
2023-03-01T01:05:16.116Z,-3.90
2023-03-01T01:08:19.423Z,-3.60
2023-03-01T01:11:26.537Z,-4.00
2023-03-01T01:14:29.737Z,-3.40
2023-03-01T01:17:32.917Z,-4.30
2023-03-01T01:20:37.664Z,-4.30
2023-03-01T01:23:42.257Z,-4.10
2023-03-01T01:26:47.210Z,-4.00
2023-03-01T01:29:50.454Z,-3.90
2023-03-01T01:32:53.692Z,-3.90
2023-03-01T01:35:57.082Z,-4.10
2023-03-01T01:39:00.403Z,-4.30
2023-03-01T01:42:05.164Z,-4.50
2023-03-01T01:45:36.287Z,-3.90
2023-03-01T01:48:44.005Z,-3.40
2023-03-01T01:51:52.088Z,-4.40
2023-03-01T01:54:59.505Z,-3.40
2023-03-01T01:58:06.442Z,-3.10
2023-03-01T02:01:10.207Z,-4.10
2023-03-01T02:04:13.703Z,-4.30
2023-03-01T02:07:18.878Z,-4.50
2023-03-01T02:10:23.180Z,-4.50
2023-03-01T02:13:27.923Z,-4.20
2023-03-01T02:16:32.965Z,-4.20
2023-03-01T02:19:50.001Z,-4.10
2023-03-01T02:22:55.983Z,-4.10
2023-03-01T02:26:05.611Z,-4.00
2023-03-01T02:29:10.877Z,-3.90
2023-03-01T02:32:16.504Z,-3.70
2023-03-01T02:35:21.523Z,-3.10
2023-03-01T02:38:26.219Z,-3.80
2023-03-01T02:41:32.937Z,-4.00
2023-03-01T02:44:37.559Z,-4.20
2023-03-01T02:47:41.070Z,-4.50
2023-03-01T02:50:57.083Z,-4.50
2023-03-01T02:54:12.963Z,-3.30
2023-03-01T02:57:16.887Z,-4.30
2023-03-01T03:03:58.966Z,-4.20
2023-03-01T03:07:02.534Z,-4.30
2023-03-01T03:10:08.056Z,-4.50
2023-03-01T03:13:12.893Z,-4.50
2023-03-01T03:16:16.347Z,-4.30
2023-03-01T03:19:21.457Z,-4.20
2023-03-01T03:22:24.671Z,-3.10
2023-03-01T03:25:29.266Z,-4.00
2023-03-01T03:28:32.753Z,-4.00
2023-03-01T03:31:36.242Z,-3.90
2023-03-01T03:34:40.846Z,-3.80
2023-03-01T03:38:01.674Z,-3.80
2023-03-01T03:41:08.190Z,-3.70
2023-03-01T03:44:11.379Z,-3.70
2023-03-01T03:47:14.952Z,-3.70
2023-03-01T03:50:20.771Z,-3.70
2023-03-01T03:53:25.131Z,-3.70
2023-03-01T03:56:28.987Z,-3.60
2023-03-01T03:59:32.847Z,-3.60
2023-03-01T04:02:36.040Z,-3.70
2023-03-01T04:05:42.177Z,-2.60
2023-03-01T04:08:45.373Z,-2.80
2023-03-01T04:11:48.508Z,-3.70
2023-03-01T04:14:51.738Z,-3.70
2023-03-01T04:17:55.770Z,-3.70
2023-03-01T04:21:00.288Z,-3.70
2023-03-01T04:24:04.650Z,-3.50
2023-03-01T04:27:07.825Z,-3.70
2023-03-01T04:30:12.250Z,-3.60
2023-03-01T04:33:15.644Z,-3.70
2023-03-01T04:36:21.774Z,-3.70
2023-03-01T04:39:25.118Z,-3.60
2023-03-01T04:42:28.351Z,-3.60
2023-03-01T04:45:31.560Z,-3.60
2023-03-01T04:48:34.980Z,-3.60
2023-03-01T04:51:39.514Z,-3.60
2023-03-01T04:54:43.301Z,-3.20
2023-03-01T04:57:46.536Z,-3.60
2023-03-01T05:00:49.687Z,-3.50
2023-03-01T05:03:54.482Z,-3.60
2023-03-01T05:06:59.786Z,-3.60
2023-03-01T05:10:02.998Z,-3.60
2023-03-01T05:13:07.717Z,-3.00
2023-03-01T05:16:12.563Z,-3.70
2023-03-01T05:19:17.276Z,-3.60
2023-03-01T05:22:21.955Z,-3.70
2023-03-01T05:25:25.210Z,-3.60
2023-03-01T05:28:29.125Z,-3.60
2023-03-01T05:31:32.524Z,-3.60
2023-03-01T05:34:37.842Z,-2.10
2023-03-01T05:37:43.620Z,-2.90
2023-03-01T05:40:48.992Z,-2.40
2023-03-01T05:43:52.208Z,-3.30
2023-03-01T05:46:55.411Z,-3.30
2023-03-01T05:49:58.702Z,-3.20
2023-03-01T05:53:06.504Z,-3.10
2023-03-01T05:56:10.036Z,-3.10
2023-03-01T05:59:14.733Z,-2.90
2023-03-01T06:02:18.035Z,-2.90
2023-03-01T06:05:21.512Z,-2.80
2023-03-01T06:08:28.178Z,-2.70
2023-03-01T06:11:31.658Z,-2.70
2023-03-01T06:14:35.030Z,-2.30
2023-03-01T06:17:39.720Z,-2.60
2023-03-01T06:20:42.945Z,-2.60
2023-03-01T06:23:47.553Z,-2.50
2023-03-01T06:26:50.745Z,-2.40
2023-03-01T06:29:54.029Z,-2.40
2023-03-01T06:33:01.822Z,-2.30
2023-03-01T06:36:05.767Z,-2.20
2023-03-01T06:39:10.413Z,-2.20
2023-03-01T06:42:13.626Z,-2.00
2023-03-01T06:45:19.100Z,-1.80
2023-03-01T06:48:22.314Z,-1.80
2023-03-01T06:51:26.238Z,-1.70
2023-03-01T06:54:30.872Z,-0.60
2023-03-01T06:57:34.134Z,-1.10
2023-03-01T07:00:37.306Z,-1.20
2023-03-01T07:03:40.504Z,-0.40
2023-03-01T07:06:43.756Z,-1.10
2023-03-01T07:09:48.803Z,-1.00
2023-03-01T07:12:52.119Z,-0.30
2023-03-01T07:15:55.400Z,-0.90
2023-03-01T07:18:59.857Z,-0.80
2023-03-01T07:22:03.094Z,-0.70
2023-03-01T07:25:08.329Z,-0.70
2023-03-01T07:28:11.519Z,-0.70
2023-03-01T07:31:14.809Z,-0.60
2023-03-01T07:34:18.035Z,-0.50
2023-03-01T07:37:21.281Z,-0.40
2023-03-01T07:40:26.151Z,-0.40
2023-03-01T07:43:29.526Z,-0.20
2023-03-01T07:46:32.942Z,-0.20
2023-03-01T07:49:36.924Z,-0.10
2023-03-01T07:52:40.246Z,0.00
2023-03-01T07:55:44.894Z,0.00
2023-03-01T07:58:49.904Z,0.10
2023-03-01T08:01:54.155Z,0.30
2023-03-01T08:04:57.418Z,0.30
2023-03-01T08:08:00.764Z,0.30
2023-03-01T08:11:07.570Z,0.40
2023-03-01T08:14:11.395Z,0.40
2023-03-01T08:17:16.158Z,0.60
2023-03-01T08:20:20.049Z,0.60
2023-03-01T08:23:23.361Z,0.70
2023-03-01T08:26:28.068Z,0.80
2023-03-01T08:29:32.818Z,0.90
2023-03-01T08:32:39.667Z,1.00
2023-03-01T08:35:42.975Z,1.20
2023-03-01T08:38:46.811Z,1.40
2023-03-01T08:41:51.411Z,1.50
2023-03-01T08:44:54.625Z,1.60
2023-03-01T08:47:57.806Z,1.60
2023-03-01T08:51:10.089Z,1.70
2023-03-01T08:54:15.883Z,1.80
2023-03-01T08:57:20.720Z,2.00
2023-03-01T09:00:24.451Z,2.10
2023-03-01T09:03:28.440Z,2.10
2023-03-01T09:06:34.611Z,2.20
2023-03-01T09:09:38.350Z,2.10
2023-03-01T09:12:42.960Z,2.30
2023-03-01T09:15:46.176Z,2.40
2023-03-01T09:18:52.279Z,2.50
2023-03-01T09:21:56.871Z,2.70
2023-03-01T09:25:00.118Z,2.70
2023-03-01T09:28:04.798Z,2.80
2023-03-01T09:31:08.103Z,2.70
2023-03-01T09:34:12.071Z,2.60
2023-03-01T09:37:15.982Z,2.70
2023-03-01T09:40:22.269Z,2.80
2023-03-01T09:43:33.041Z,2.90
2023-03-01T09:46:43.268Z,2.90
2023-03-01T09:49:49.735Z,2.90
2023-03-01T09:53:00.663Z,3.10
2023-03-01T09:56:08.046Z,3.20
2023-03-01T09:59:23.360Z,3.30
2023-03-01T10:02:32.903Z,3.40
2023-03-01T10:05:43.672Z,3.40
2023-03-01T10:08:54.324Z,3.30
2023-03-01T10:11:58.387Z,3.50
2023-03-01T10:15:11.528Z,3.60
2023-03-01T10:18:19.780Z,3.60
2023-03-01T10:21:23.692Z,3.70
2023-03-01T10:24:26.914Z,3.60
2023-03-01T10:27:42.046Z,3.80
2023-03-01T10:30:47.436Z,3.90
2023-03-01T10:33:55.756Z,3.90
2023-03-01T10:37:03.440Z,4.00
2023-03-01T10:40:10.361Z,4.20
2023-03-01T10:43:14.248Z,4.30
2023-03-01T10:46:31.695Z,4.50
2023-03-01T10:49:37.266Z,4.60
2023-03-01T10:52:43.360Z,4.90
2023-03-01T10:55:46.594Z,4.80
2023-03-01T10:59:01.200Z,5.00
2023-03-01T11:02:24.903Z,5.00
2023-03-01T11:05:31.393Z,5.50
2023-03-01T11:08:42.673Z,5.70
2023-03-01T11:11:46.966Z,5.70
2023-03-01T11:14:52.618Z,5.70
2023-03-01T11:18:09.294Z,6.20
2023-03-01T11:21:18.236Z,6.40
2023-03-01T11:24:22.065Z,7.00
2023-03-01T11:27:28.173Z,6.90
2023-03-01T11:30:34.394Z,7.10
2023-03-01T11:33:45.534Z,7.60
2023-03-01T11:36:54.852Z,8.00
2023-03-01T11:40:05.835Z,8.40
2023-03-01T11:43:17.682Z,8.40
2023-03-01T11:46:53.379Z,8.40
2023-03-01T11:50:18.446Z,8.90
2023-03-01T11:53:51.817Z,9.20
2023-03-01T11:56:59.628Z,9.70
2023-03-01T12:00:31.127Z,9.90
2023-03-01T12:03:56.865Z,10.00
2023-03-01T12:07:04.962Z,10.60
2023-03-01T12:10:22.587Z,10.30
2023-03-01T12:13:53.987Z,9.70
2023-03-01T12:17:24.008Z,10.10
2023-03-01T12:20:34.455Z,10.10
2023-03-01T12:24:13.404Z,9.40
2023-03-01T12:27:33.474Z,9.80
2023-03-01T12:30:51.203Z,9.30
2023-03-01T12:34:00.654Z,9.40
2023-03-01T12:37:31.704Z,9.60
2023-03-01T12:41:08.672Z,9.40
2023-03-01T12:44:40.079Z,9.40
2023-03-01T12:47:55.705Z,9.90
2023-03-01T12:51:04.934Z,10.10
2023-03-01T12:54:17.701Z,9.50
2023-03-01T12:57:30.231Z,9.60
2023-03-01T13:00:37.800Z,9.30
2023-03-01T13:04:08.440Z,9.00
2023-03-01T13:07:23.434Z,8.90
2023-03-01T13:10:32.699Z,8.70
2023-03-01T13:13:37.409Z,8.60
2023-03-01T13:16:46.089Z,8.40
2023-03-01T13:19:59.664Z,8.10
2023-03-01T13:23:10.669Z,8.20
2023-03-01T13:26:19.613Z,7.80
2023-03-01T13:29:29.382Z,8.00
2023-03-01T13:32:49.809Z,8.00
2023-03-01T13:35:53.622Z,8.00
2023-03-01T13:38:59.442Z,8.00
2023-03-01T13:42:03.417Z,8.30
2023-03-01T13:45:25.444Z,8.40
2023-03-01T13:48:31.232Z,8.70
2023-03-01T13:51:35.167Z,8.60
2023-03-01T13:54:41.233Z,9.00
2023-03-01T13:57:47.684Z,9.20
2023-03-01T14:00:58.864Z,9.20
2023-03-01T14:04:03.258Z,8.40
2023-03-01T14:07:14.585Z,8.60
2023-03-01T14:10:18.835Z,9.30
2023-03-01T14:13:33.539Z,9.40
2023-03-01T14:16:46.956Z,9.20
2023-03-01T14:19:57.977Z,9.20
2023-03-01T14:23:04.631Z,9.00
2023-03-01T14:26:10.254Z,8.90
2023-03-01T14:29:28.361Z,8.70
2023-03-01T14:32:34.458Z,8.60
2023-03-01T14:35:39.955Z,8.30
2023-03-01T14:38:45.217Z,8.20
2023-03-01T14:41:48.866Z,7.90
2023-03-01T14:44:54.418Z,7.70
2023-03-01T14:48:02.674Z,7.70
2023-03-01T14:51:08.043Z,7.40
2023-03-01T14:54:24.272Z,7.20
2023-03-01T14:57:28.794Z,7.00
2023-03-01T15:00:35.000Z,6.60
2023-03-01T15:03:43.968Z,6.40
2023-03-01T15:06:48.261Z,6.10
2023-03-01T15:09:51.713Z,6.10
2023-03-01T15:12:55.084Z,5.90
2023-03-01T15:16:12.471Z,5.90
2023-03-01T15:19:21.219Z,5.70
2023-03-01T15:22:27.807Z,5.50
2023-03-01T15:25:32.802Z,5.20
2023-03-01T15:28:41.767Z,4.80
2023-03-01T15:31:45.435Z,4.60
2023-03-01T15:34:50.917Z,4.30
2023-03-01T15:37:54.223Z,4.00
2023-03-01T15:40:58.865Z,3.80
2023-03-01T15:44:16.758Z,3.50
2023-03-01T15:47:32.585Z,3.30
2023-03-01T15:50:40.980Z,3.10
2023-03-01T15:53:54.645Z,2.90
2023-03-01T15:56:58.592Z,2.70
2023-03-01T16:00:02.004Z,2.50
2023-03-01T16:03:10.013Z,2.30
2023-03-01T16:06:15.722Z,2.10
2023-03-01T16:09:19.205Z,2.00
2023-03-01T16:12:23.229Z,1.90
2023-03-01T16:15:32.993Z,1.80
2023-03-01T16:18:36.462Z,1.80
2023-03-01T16:21:41.313Z,1.60
2023-03-01T16:24:44.534Z,1.50
2023-03-01T16:27:52.602Z,1.40
2023-03-01T16:30:57.871Z,1.20
2023-03-01T16:34:01.968Z,1.10
2023-03-01T16:37:06.754Z,0.90
2023-03-01T16:40:20.139Z,0.80
2023-03-01T16:43:23.490Z,0.70
2023-03-01T16:46:28.591Z,0.50
2023-03-01T16:49:31.772Z,0.40
2023-03-01T16:52:37.062Z,0.30
2023-03-01T16:55:46.202Z,0.20
2023-03-01T16:58:50.001Z,0.10
2023-03-01T17:01:53.398Z,-0.10
2023-03-01T17:04:57.830Z,-0.10
2023-03-01T17:08:02.772Z,-0.20
2023-03-01T17:11:08.642Z,-0.40
2023-03-01T17:14:12.068Z,-0.40
2023-03-01T17:17:15.521Z,-0.40
2023-03-01T17:20:19.302Z,-0.40
2023-03-01T17:23:24.131Z,-0.40
2023-03-01T17:26:29.231Z,-0.40
2023-03-01T17:29:32.952Z,-0.40
2023-03-01T17:32:36.449Z,-0.50
2023-03-01T17:35:41.042Z,-0.50
2023-03-01T17:38:47.347Z,-0.60
2023-03-01T17:41:50.652Z,-0.70
2023-03-01T17:44:53.829Z,-0.80
2023-03-01T17:47:57.253Z,-0.70
2023-03-01T17:51:00.747Z,-0.60
2023-03-01T17:54:08.055Z,-0.60
2023-03-01T17:57:11.460Z,-0.50
2023-03-01T18:00:17.298Z,-0.50
2023-03-01T18:03:21.673Z,-0.60
2023-03-01T18:06:26.743Z,-0.70
2023-03-01T18:09:31.765Z,-0.60
2023-03-01T18:12:35.284Z,-0.60
2023-03-01T18:15:39.006Z,-0.70
2023-03-01T18:18:45.072Z,-0.90
2023-03-01T18:21:49.400Z,-1.00
2023-03-01T18:24:54.117Z,-1.10
2023-03-01T18:27:57.427Z,-1.30
2023-03-01T18:31:02.710Z,-1.30
2023-03-01T18:34:06.088Z,-1.40
2023-03-01T18:37:10.139Z,-1.40
2023-03-01T18:40:15.054Z,-1.50
2023-03-01T18:43:18.314Z,-1.50
2023-03-01T18:46:21.963Z,-1.50
2023-03-01T18:49:26.160Z,-1.50
2023-03-01T18:52:32.969Z,-1.50
2023-03-01T18:55:40.657Z,-1.50
2023-03-01T18:58:44.260Z,-1.50
2023-03-01T19:03:01.341Z,-1.60
2023-03-01T19:06:05.250Z,-1.70
2023-03-01T19:09:11.353Z,-1.80
2023-03-01T19:12:16.037Z,-1.80
2023-03-01T19:15:19.660Z,-1.80
2023-03-01T19:18:23.040Z,-1.90
2023-03-01T19:21:27.317Z,-1.90
2023-03-01T19:24:31.559Z,-1.80
2023-03-01T19:27:36.587Z,-1.80
2023-03-01T19:30:40.079Z,-1.80
2023-03-01T19:33:43.334Z,-1.90
2023-03-01T19:36:48.549Z,-1.90
2023-03-01T19:39:51.953Z,-1.90
2023-03-01T19:42:56.597Z,-2.00
2023-03-01T19:45:59.993Z,-2.00
2023-03-01T19:49:06.542Z,-2.00
2023-03-01T19:52:10.131Z,-2.00
2023-03-01T19:55:14.838Z,-1.90
2023-03-01T19:58:20.209Z,-2.10
2023-03-01T20:01:24.259Z,-2.10
2023-03-01T20:04:27.603Z,-2.20
2023-03-01T20:07:31.504Z,-2.20
2023-03-01T20:10:35.485Z,-2.20
2023-03-01T20:13:40.866Z,-2.10
2023-03-01T20:16:53.545Z,-2.20
2023-03-01T20:19:59.436Z,-2.20
2023-03-01T20:23:04.007Z,-2.30
2023-03-01T20:26:09.884Z,-2.30
2023-03-01T20:29:17.172Z,-2.30
2023-03-01T20:32:20.777Z,-2.30
2023-03-01T20:35:24.543Z,-2.30
2023-03-01T20:38:30.147Z,-2.30
2023-03-01T20:41:35.375Z,-2.40
2023-03-01T20:44:44.408Z,-2.40
2023-03-01T20:47:47.759Z,-2.40
2023-03-01T20:50:51.409Z,-2.10
2023-03-01T20:53:56.973Z,-2.50
2023-03-01T20:57:01.546Z,-2.50
2023-03-01T21:00:08.658Z,-2.50
2023-03-01T21:03:12.230Z,-2.50
2023-03-01T21:06:20.914Z,-2.50
2023-03-01T21:09:24.196Z,-2.50
2023-03-01T21:12:27.651Z,-2.50
2023-03-01T21:15:34.964Z,-2.50
2023-03-01T21:18:39.084Z,-1.90
2023-03-01T21:21:42.599Z,-2.60
2023-03-01T21:24:46.038Z,-2.60
2023-03-01T21:27:49.312Z,-2.60
2023-03-01T21:30:54.352Z,-2.60
2023-03-01T21:33:59.897Z,-2.60
2023-03-01T21:37:03.484Z,-2.70
2023-03-01T21:40:08.986Z,-2.70
2023-03-01T21:43:12.177Z,-2.70
2023-03-01T21:46:19.174Z,-2.60
2023-03-01T21:49:23.044Z,-2.50
2023-03-01T21:52:26.290Z,-2.50
2023-03-01T21:55:29.525Z,-2.30
2023-03-01T21:58:33.172Z,-2.30
2023-03-01T22:01:38.016Z,-2.30
2023-03-01T22:04:41.340Z,-2.20
2023-03-01T22:07:44.591Z,-2.20
2023-03-01T22:10:47.792Z,-2.00
2023-03-01T22:13:52.548Z,-1.00
2023-03-01T22:16:57.301Z,-2.10
2023-03-01T22:20:00.825Z,-2.20
2023-03-01T22:23:04.156Z,-2.20
2023-03-01T22:26:08.250Z,-2.20
2023-03-01T22:29:14.132Z,-2.30
2023-03-01T22:32:18.896Z,-1.80
2023-03-01T22:35:22.256Z,-2.40
2023-03-01T22:38:25.584Z,-2.30
2023-03-01T22:41:29.776Z,-2.30
2023-03-01T22:44:33.469Z,-2.40
2023-03-01T22:47:38.774Z,-2.30
2023-03-01T22:50:43.861Z,-2.30
2023-03-01T22:53:47.321Z,-2.40
2023-03-01T22:56:50.988Z,-2.50
2023-03-01T22:59:54.264Z,-2.50
2023-03-01T23:02:58.963Z,-2.60
2023-03-01T23:06:02.249Z,-2.40
2023-03-01T23:09:06.821Z,-2.50
2023-03-01T23:12:10.904Z,-2.40
2023-03-01T23:15:14.538Z,-1.50
2023-03-01T23:18:19.120Z,-2.40
2023-03-01T23:21:22.745Z,-2.30
2023-03-01T23:24:31.373Z,-2.30
2023-03-01T23:27:37.837Z,-2.50
2023-03-01T23:30:40.986Z,-2.20
2023-03-01T23:33:47.199Z,-0.70
2023-03-01T23:36:53.205Z,-2.60
2023-03-01T23:39:56.377Z,-2.70
2023-03-01T23:42:59.536Z,-2.60
2023-03-01T23:46:02.802Z,-2.70
2023-03-01T23:49:07.426Z,-2.70
2023-03-01T23:52:15.242Z,-2.60
2023-03-01T23:55:18.868Z,-2.70
2023-03-01T23:58:28.225Z,-2.60
